Time;durP1;ratioP1;P1;durP2;ratioP2;P2;SDS_P1;SDS_P2;PMS_P1;PMS_P2;Temp;Humidity;BMP_temperature;BMP_pressure;BME280_temperature;BME280_humidity;BME280_pressure;Samples;Min_cycle;Max_cycle;Signal;HPM_P1;HPM_P2
2023/07/18 00:01:33;;;;;;;7.22;3.55;;;;;;;21.52;43.15;101144.41;4107424;28;20043;-62
2023/07/18 00:03:36;;;;;;;11.23;3.67;;;;;;;21.50;43.50;101138.25;4109980;28;20427;-62
2023/07/18 00:05:40;;;;;;;9.05;3.22;;;;;;;21.42;43.68;101135.78;4112140;28;20440;-62
2023/07/18 00:07:45;;;;;;;8.48;3.20;;;;;;;21.43;43.69;101144.59;4110482;28;20043;-62
2023/07/18 00:09:50;;;;;;;7.77;3.73;;;;;;;21.53;43.34;101142.66;4106013;28;20073;-62
2023/07/18 00:11:53;;;;;;;5.80;3.08;;;;;;;21.50;43.04;101140.91;4110763;28;20504;-62
2023/07/18 00:13:56;;;;;;;8.38;3.72;;;;;;;21.42;43.04;101148.13;4106467;28;20038;-62
2023/07/18 00:15:59;;;;;;;6.45;3.38;;;;;;;21.40;43.19;101149.94;4111546;28;20037;-62
2023/07/18 00:18:02;;;;;;;7.13;3.05;;;;;;;21.34;43.22;101145.63;4111131;28;20146;-62
2023/07/18 00:20:12;;;;;;;6.68;3.17;;;;;;;21.33;43.27;101145.66;4101840;28;20122;-62
2023/07/18 00:22:15;;;;;;;7.90;2.97;;;;;;;21.35;43.46;101155.31;4108739;28;20492;-62
2023/07/18 00:24:18;;;;;;;4.75;2.70;;;;;;;21.37;43.62;101155.28;4107485;28;20043;-62
2023/07/18 00:26:24;;;;;;;11.50;3.33;;;;;;;21.39;43.90;101158.75;4120125;28;20101;-62
2023/07/18 00:28:26;;;;;;;5.07;2.60;;;;;;;21.40;44.21;101158.72;4106996;28;20043;-61
2023/07/18 00:30:28;;;;;;;6.43;3.22;;;;;;;21.39;44.72;101159.66;4110236;28;20079;-62
2023/07/18 00:32:31;;;;;;;9.27;3.50;;;;;;;21.39;44.81;101158.75;4112766;28;20074;-62
2023/07/18 00:34:34;;;;;;;9.43;3.75;;;;;;;21.40;44.09;101160.53;4112061;28;20043;-62
2023/07/18 00:36:38;;;;;;;9.88;3.30;;;;;;;21.35;44.32;101159.72;4108584;28;20481;-62
2023/07/18 00:38:41;;;;;;;5.88;3.03;;;;;;;21.34;44.15;101158.00;4094942;29;20047;-63
2023/07/18 00:40:48;;;;;;;5.68;3.08;;;;;;;21.39;43.37;101158.75;4111715;28;20047;-62
2023/07/18 00:42:53;;;;;;;6.03;3.03;;;;;;;21.41;43.31;101151.69;4110430;28;20047;-62
2023/07/18 00:44:57;;;;;;;8.75;3.60;;;;;;;21.37;43.29;101157.94;4096109;28;20491;-63
2023/07/18 00:47:00;;;;;;;11.13;3.25;;;;;;;21.34;43.16;101160.66;4107921;28;20545;-62
2023/07/18 00:49:04;;;;;;;7.10;3.50;;;;;;;21.27;43.25;101159.88;4118271;28;20069;-62
2023/07/18 00:51:07;;;;;;;8.82;3.15;;;;;;;21.21;43.52;101165.28;4109898;28;20129;-62
2023/07/18 00:53:09;;;;;;;10.45;2.92;;;;;;;21.21;43.51;101165.28;4109280;28;20042;-62
2023/07/18 00:55:13;;;;;;;10.45;3.40;;;;;;;21.21;43.45;101155.56;4102590;28;20500;-63
2023/07/18 00:57:16;;;;;;;7.85;3.40;;;;;;;21.21;43.71;101155.56;4106519;28;20518;-63
2023/07/18 00:59:22;;;;;;;6.70;3.42;;;;;;;21.21;43.60;101157.34;4113351;28;20539;-62
2023/07/18 01:01:26;;;;;;;4.97;2.92;;;;;;;21.22;43.60;101157.31;4111794;28;20035;-63
2023/07/18 01:03:29;;;;;;;9.95;3.58;;;;;;;21.19;43.69;101157.38;4095864;29;20043;-63
2023/07/18 01:05:33;;;;;;;8.32;3.88;;;;;;;21.17;43.94;101153.88;4116069;28;20043;-62
2023/07/18 01:07:37;;;;;;;7.43;3.40;;;;;;;21.14;43.89;101155.72;4106794;28;20107;-63
2023/07/18 01:09:40;;;;;;;7.05;3.28;;;;;;;21.10;44.04;101157.56;4109302;28;20042;-63
2023/07/18 01:11:43;;;;;;;6.05;3.22;;;;;;;21.17;43.87;101158.31;4112082;28;20061;-62
2023/07/18 01:13:45;;;;;;;7.57;3.20;;;;;;;21.11;44.13;101154.00;4105900;28;20043;-62
2023/07/18 01:15:49;;;;;;;5.95;2.85;;;;;;;21.07;44.29;101154.94;4116084;28;20039;-62
2023/07/18 01:17:53;;;;;;;;;;;;;;;20.97;44.58;101148.97;4115306;28;20051;-63
2023/07/18 01:19:56;;;;;;;8.07;3.28;;;;;;;21.02;44.33;101141.81;4115359;28;19922;-63
2023/07/18 01:22:00;;;;;;;7.50;2.92;;;;;;;21.04;44.26;101144.44;4115289;28;20039;-64
2023/07/18 01:24:03;;;;;;;6.40;3.25;;;;;;;21.02;44.43;101138.31;4115043;28;20043;-63
2023/07/18 01:26:06;;;;;;;8.98;3.95;;;;;;;21.02;44.12;101138.31;4113785;28;20556;-62
2023/07/18 01:28:10;;;;;;;6.18;3.40;;;;;;;21.03;44.32;101140.06;4114644;28;20042;-63
2023/07/18 01:30:13;;;;;;;;;;;;;;;20.95;44.33;101147.25;4104133;28;20055;-63
2023/07/18 01:32:16;;;;;;;6.82;2.70;;;;;;;20.98;44.34;101148.06;4110039;28;19930;-63
2023/07/18 01:34:20;;;;;;;8.43;2.65;;;;;;;21.05;44.30;101132.97;4106198;28;20035;-62
2023/07/18 01:36:24;;;;;;;6.28;2.78;;;;;;;21.02;44.46;101128.59;4102817;28;20050;-63
2023/07/18 01:38:30;;;;;;;9.73;2.85;;;;;;;21.01;44.56;101131.28;4116152;28;20128;-63
2023/07/18 01:40:33;;;;;;;6.35;3.00;;;;;;;20.96;44.89;101128.72;4120653;28;20046;-62
2023/07/18 01:42:35;;;;;;;5.57;3.17;;;;;;;20.96;44.94;101130.50;4114842;28;20491;-62
2023/07/18 01:44:37;;;;;;;6.15;3.10;;;;;;;21.02;44.89;101130.38;4121944;28;20119;-62
2023/07/18 01:46:40;;;;;;;6.60;3.17;;;;;;;21.01;45.16;101126.88;4118350;28;20110;-62
2023/07/18 01:48:43;;;;;;;8.23;2.83;;;;;;;21.00;45.05;101132.19;4105487;28;20043;-62
2023/07/18 01:50:46;;;;;;;6.32;2.88;;;;;;;21.05;44.90;101132.97;4102749;28;20556;-62
2023/07/18 01:52:48;;;;;;;5.43;3.03;;;;;;;21.01;44.92;101131.28;4103638;28;20126;-62
2023/07/18 01:54:59;;;;;;;10.55;3.78;;;;;;;21.04;44.87;101126.81;4106620;28;20039;-62
2023/07/18 01:57:00;;;;;;;7.28;2.92;;;;;;;21.03;44.88;101116.28;4112890;28;20693;-62
2023/07/18 01:59:03;;;;;;;6.47;3.13;;;;;;;20.99;45.00;101122.53;4110435;28;20058;-62
2023/07/18 02:01:06;;;;;;;9.23;3.13;;;;;;;20.96;45.00;101118.16;4101460;28;20101;-62
2023/07/18 02:03:09;;;;;;;7.53;3.33;;;;;;;20.96;45.33;101120.78;4111240;28;20045;-62
2023/07/18 02:05:13;;;;;;;5.63;3.13;;;;;;;20.95;45.31;101119.03;4109882;28;20031;-62
2023/07/18 02:07:16;;;;;;;6.82;3.25;;;;;;;20.94;45.41;101114.69;4106557;28;20582;-62
2023/07/18 02:09:18;;;;;;;7.50;3.42;;;;;;;20.96;45.29;101112.88;4111017;28;20050;-62
2023/07/18 02:11:23;;;;;;;7.30;3.22;;;;;;;20.95;45.68;101107.63;4108989;28;20066;-63
2023/07/18 02:13:28;;;;;;;7.25;3.33;;;;;;;20.93;45.85;101118.22;4114100;28;20043;-62
2023/07/18 02:15:31;;;;;;;5.80;3.20;;;;;;;20.91;45.97;101118.25;4094553;28;20054;-62
2023/07/18 02:17:35;;;;;;;8.00;3.25;;;;;;;20.89;46.50;101108.59;4117810;28;20101;-63
2023/07/18 02:19:38;;;;;;;4.55;3.00;;;;;;;20.92;47.07;101111.19;4117150;28;21291;-62
2023/07/18 02:21:41;;;;;;;5.32;2.67;;;;;;;20.87;47.47;101105.13;4111224;28;20408;-62
2023/07/18 02:23:45;;;;;;;7.90;3.60;;;;;;;20.82;47.63;101110.50;4108633;28;20070;-62
2023/07/18 02:25:50;;;;;;;7.70;3.53;;;;;;;20.81;47.72;101103.44;4110908;28;20094;-62
2023/07/18 02:27:54;;;;;;;7.55;3.42;;;;;;;20.81;47.00;101103.44;4110835;28;20307;-62
2023/07/18 02:29:57;;;;;;;7.90;3.67;;;;;;;20.82;46.84;101105.22;4105476;28;20138;-62
2023/07/18 02:32:00;;;;;;;7.50;3.85;;;;;;;20.80;46.80;101099.06;4115419;28;20108;-63
2023/07/18 02:34:04;;;;;;;8.53;3.53;;;;;;;20.83;46.75;101100.78;4113179;28;20038;-63
2023/07/18 02:36:08;;;;;;;8.20;3.55;;;;;;;20.81;47.24;101102.56;4107757;28;20094;-63
2023/07/18 02:38:10;;;;;;;7.60;3.47;;;;;;;20.77;47.52;101101.75;4109390;28;20077;-63
2023/07/18 02:40:15;;;;;;;10.60;3.38;;;;;;;20.76;48.02;101105.28;4111226;28;20047;-63
2023/07/18 02:42:17;;;;;;;9.93;3.40;;;;;;;20.73;48.39;101100.97;4110582;28;20058;-62
2023/07/18 02:44:22;;;;;;;4.95;2.88;;;;;;;20.69;48.80;101101.91;4110743;28;20074;-63
2023/07/18 02:46:24;;;;;;;5.47;2.80;;;;;;;20.65;48.98;101100.19;4110050;28;20125;-62
2023/07/18 02:48:27;;;;;;;6.88;2.95;;;;;;;20.65;49.03;101107.25;4107483;28;20757;-63
2023/07/18 02:50:31;;;;;;;5.93;2.90;;;;;;;20.61;48.84;101106.41;4093814;29;20043;-62
2023/07/18 02:52:34;;;;;;;6.70;3.58;;;;;;;20.60;49.07;101106.44;4109679;28;20573;-62
2023/07/18 02:54:36;;;;;;;7.95;3.45;;;;;;;20.58;49.29;101095.91;4106679;28;20053;-62
2023/07/18 02:56:39;;;;;;;5.82;3.20;;;;;;;20.55;49.53;101102.09;4133541;23;20148;-63
2023/07/18 02:58:42;;;;;;;4.82;2.67;;;;;;;20.53;49.61;101109.19;4115162;28;20066;-63
2023/07/18 03:00:46;;;;;;;6.07;3.60;;;;;;;20.51;49.45;101110.09;4126548;28;20041;-63
2023/07/18 03:02:51;;;;;;;10.23;3.45;;;;;;;20.44;49.36;101101.41;4119459;28;20057;-64
2023/07/18 03:04:54;;;;;;;6.32;3.40;;;;;;;20.39;49.16;101100.63;4114233;28;20515;-64
2023/07/18 03:06:58;;;;;;;7.90;3.78;;;;;;;20.36;49.49;101100.66;4109842;28;20118;-63
2023/07/18 03:09:01;;;;;;;7.75;3.25;;;;;;;20.33;49.71;101095.44;4100507;28;20086;-63
2023/07/18 03:11:04;;;;;;;7.22;2.90;;;;;;;20.33;50.10;101100.72;4101240;28;20523;-63
2023/07/18 03:13:07;;;;;;;6.07;2.80;;;;;;;20.30;50.40;101099.00;4124424;28;20042;-63
2023/07/18 03:15:11;;;;;;;8.77;3.58;;;;;;;20.30;50.51;101103.41;4110988;28;20039;-63
2023/07/18 03:17:18;;;;;;;7.30;3.55;;;;;;;20.28;50.69;101105.19;4117042;28;20043;-63
2023/07/18 03:19:24;;;;;;;7.63;3.80;;;;;;;20.28;50.90;101102.53;4116951;28;20053;-63
2023/07/18 03:21:34;;;;;;;6.68;3.83;;;;;;;20.30;51.35;101111.34;4118331;28;20050;-64
2023/07/18 03:23:37;;;;;;;5.78;3.63;;;;;;;20.33;50.89;101112.16;4133062;28;20470;-64
2023/07/18 03:25:40;;;;;;;6.70;3.63;;;;;;;20.32;50.46;101110.38;4107543;28;20036;-64
2023/07/18 03:27:42;;;;;;;7.63;3.38;;;;;;;20.31;50.54;101115.69;4114877;28;20058;-63
2023/07/18 03:29:45;;;;;;;8.60;3.75;;;;;;;20.30;50.46;101119.25;4117956;28;20130;-63
2023/07/18 03:31:48;;;;;;;5.40;3.15;;;;;;;20.27;50.24;101121.91;4126873;28;20408;-63
2023/07/18 03:33:52;;;;;;;7.25;3.28;;;;;;;20.21;50.18;101123.78;4134280;28;20326;-63
2023/07/18 03:35:55;;;;;;;8.18;3.30;;;;;;;20.16;50.19;101120.31;4123558;28;20062;-63
2023/07/18 03:38:02;;;;;;;7.60;3.47;;;;;;;20.08;50.72;101121.31;4109361;28;20093;-63
2023/07/18 03:40:06;;;;;;;5.25;2.90;;;;;;;20.08;50.91;101127.50;4116683;28;20497;-64
2023/07/18 03:42:09;;;;;;;7.00;3.28;;;;;;;20.03;50.86;101129.31;4118103;28;20504;-63
2023/07/18 03:44:12;;;;;;;7.95;2.97;;;;;;;20.03;50.83;101124.03;4108256;28;20544;-63
2023/07/18 03:46:15;;;;;;;7.47;3.50;;;;;;;20.00;51.04;101121.44;4106990;28;20046;-63
2023/07/18 03:48:18;;;;;;;7.78;3.10;;;;;;;19.97;51.10;101124.13;4100194;28;20043;-63
2023/07/18 03:50:23;;;;;;;7.03;3.55;;;;;;;19.97;51.34;101111.78;4103263;28;20061;-63
2023/07/18 03:52:26;;;;;;;6.35;3.13;;;;;;;19.95;51.11;101113.59;4106002;28;20062;-63
2023/07/18 03:54:29;;;;;;;6.68;3.33;;;;;;;19.88;51.88;101119.84;4111465;28;20042;-63
2023/07/18 03:56:32;;;;;;;6.35;3.33;;;;;;;19.76;52.16;101115.59;4103130;28;20544;-64
2023/07/18 03:58:35;;;;;;;9.80;4.03;;;;;;;19.68;52.30;101109.53;4107919;28;20044;-63
2023/07/18 04:00:38;;;;;;;8.35;4.20;;;;;;;19.66;52.63;101111.31;4103316;28;20053;-63
2023/07/18 04:02:40;;;;;;;9.95;4.20;;;;;;;19.74;52.38;101104.16;4106193;28;20047;-63
2023/07/18 04:04:47;;;;;;;8.80;3.80;;;;;;;19.86;52.83;101104.03;4107452;28;20131;-63
2023/07/18 04:06:52;;;;;;;6.72;3.65;;;;;;;19.85;52.99;101114.63;4108854;28;20149;-63
2023/07/18 04:08:55;;;;;;;8.35;4.05;;;;;;;19.67;53.40;101110.44;4108079;28;20031;-63
2023/07/18 04:10:58;;;;;;;8.45;3.78;;;;;;;19.59;53.71;101107.88;4104824;28;20129;-63
2023/07/18 04:13:01;;;;;;;8.65;4.13;;;;;;;19.66;54.62;101104.28;4103057;28;20122;-64
2023/07/18 04:15:06;;;;;;;9.07;3.92;;;;;;;19.61;55.14;101103.47;4101811;28;20075;-63
2023/07/18 04:17:09;;;;;;;;;;;;;;;19.51;55.78;101115.03;4106732;28;20035;-62
2023/07/18 04:19:12;;;;;;;7.05;3.92;;;;;;;19.59;55.87;101115.78;4107714;28;19977;-63
2023/07/18 04:21:15;;;;;;;7.13;3.75;;;;;;;19.61;55.47;101113.13;4102863;28;20093;-62
2023/07/18 04:23:20;;;;;;;9.02;4.68;;;;;;;19.67;55.70;101105.16;4126195;28;20042;-63
2023/07/18 04:25:23;;;;;;;12.48;4.25;;;;;;;19.64;56.11;101105.19;4104542;28;20050;-63
2023/07/18 04:27:27;;;;;;;7.18;3.88;;;;;;;19.68;56.09;101101.63;4103292;28;20530;-63
2023/07/18 04:29:30;;;;;;;9.00;4.43;;;;;;;19.75;56.44;101105.06;4107285;28;20035;-63
2023/07/18 04:31:33;;;;;;;8.05;3.92;;;;;;;19.80;56.04;101109.41;4103871;28;20573;-63
2023/07/18 04:33:39;;;;;;;8.32;5.05;;;;;;;19.85;55.89;101099.66;4104006;28;20051;-63
2023/07/18 04:35:43;;;;;;;7.85;3.88;;;;;;;19.89;56.02;101103.13;4105213;28;20448;-63
2023/07/18 04:37:46;;;;;;;7.57;3.90;;;;;;;19.91;56.11;101105.75;4103882;28;20046;-63
2023/07/18 04:39:50;;;;;;;10.55;3.90;;;;;;;19.84;56.32;101104.94;4112300;28;20042;-63
2023/07/18 04:41:53;;;;;;;6.43;3.72;;;;;;;19.87;56.40;101103.16;4107285;28;20043;-63
2023/07/18 04:43:57;;;;;;;9.18;4.10;;;;;;;19.97;56.41;101097.75;4109660;28;20412;-63
2023/07/18 04:46:00;;;;;;;10.40;4.65;;;;;;;19.96;56.91;101101.25;4106319;28;20057;-63
2023/07/18 04:48:04;;;;;;;9.90;3.92;;;;;;;20.01;56.58;101099.44;4108528;28;20524;-63
2023/07/18 04:50:10;;;;;;;8.73;4.35;;;;;;;20.09;56.67;101101.97;4123378;28;20407;-62
2023/07/18 04:52:13;;;;;;;8.52;4.22;;;;;;;20.11;56.36;101098.41;4110644;28;20035;-63
2023/07/18 04:54:15;;;;;;;11.80;4.13;;;;;;;20.07;56.81;101104.63;4110742;28;20148;-63
2023/07/18 04:56:19;;;;;;;8.88;4.20;;;;;;;20.06;56.93;101100.22;4103603;28;20219;-63
2023/07/18 04:58:23;;;;;;;9.88;4.30;;;;;;;19.95;56.87;101094.25;4113099;28;20512;-62
2023/07/18 05:00:27;;;;;;;9.23;4.55;;;;;;;19.92;57.27;101095.16;4110212;28;20035;-62
2023/07/18 05:02:30;;;;;;;8.05;4.68;;;;;;;19.92;56.43;101092.53;4107681;28;20043;-62
2023/07/18 05:04:33;;;;;;;14.05;5.30;;;;;;;19.98;56.43;101089.78;4114156;28;20057;-62
2023/07/18 05:06:36;;;;;;;10.52;4.72;;;;;;;19.96;56.16;101096.88;4105868;28;20043;-62
2023/07/18 05:08:38;;;;;;;10.82;3.83;;;;;;;19.86;56.50;101092.63;4108775;28;20047;-62
2023/07/18 05:10:41;;;;;;;6.97;3.80;;;;;;;19.88;56.10;101094.31;4109469;28;20146;-62
2023/07/18 05:12:46;;;;;;;11.90;4.35;;;;;;;19.86;56.04;101090.84;4107093;28;20050;-62
2023/07/18 05:14:48;;;;;;;8.73;3.67;;;;;;;19.92;56.25;101097.81;4110796;28;20567;-62
2023/07/18 05:16:51;;;;;;;6.93;4.05;;;;;;;19.97;56.16;101097.75;4105915;28;20035;-62
2023/07/18 05:18:54;;;;;;;7.38;3.92;;;;;;;20.03;56.29;101095.88;4109307;28;20035;-62
2023/07/18 05:20:57;;;;;;;7.10;3.50;;;;;;;20.05;56.00;101093.22;4106450;28;20046;-62
2023/07/18 05:23:01;;;;;;;8.50;3.65;;;;;;;20.05;56.08;101095.88;4111053;28;20511;-62
2023/07/18 05:25:04;;;;;;;6.28;3.88;;;;;;;20.07;55.80;101096.69;4108727;28;20493;-62
2023/07/18 05:27:07;;;;;;;9.90;3.80;;;;;;;20.12;55.47;101092.25;4108151;28;20535;-62
2023/07/18 05:29:12;;;;;;;11.27;4.15;;;;;;;20.12;55.18;101097.53;4113911;28;20526;-62
2023/07/18 05:31:15;;;;;;;;;;;;;;;20.13;54.92;101090.47;4107391;28;20046;-62
2023/07/18 05:33:19;;;;;;;7.05;3.40;;;;;;;20.24;54.65;101083.25;4101937;28;19926;-62
2023/07/18 05:35:22;;;;;;;9.45;3.58;;;;;;;20.30;54.29;101085.78;4111036;28;20073;-62
2023/07/18 05:37:25;;;;;;;9.57;3.95;;;;;;;20.30;54.04;101085.78;4109034;28;20507;-62
2023/07/18 05:39:28;;;;;;;9.60;4.00;;;;;;;20.31;54.03;101081.38;4112178;28;20530;-62
2023/07/18 05:41:31;;;;;;;5.88;3.17;;;;;;;20.33;53.98;101079.59;4123962;28;20340;-62
2023/07/18 05:43:34;;;;;;;8.95;3.65;;;;;;;20.38;53.76;101081.28;4108986;28;20062;-62
2023/07/18 05:45:40;;;;;;;8.00;3.15;;;;;;;20.49;53.29;101075.78;4109844;28;20051;-63
2023/07/18 05:47:43;;;;;;;8.88;3.17;;;;;;;20.60;53.02;101080.00;4107885;28;20050;-62
2023/07/18 05:49:46;;;;;;;9.45;4.25;;;;;;;20.63;52.39;101074.69;4105402;28;20109;-63
2023/07/18 05:51:48;;;;;;;8.25;3.85;;;;;;;20.71;52.71;101076.31;4111532;28;20232;-63
2023/07/18 05:53:51;;;;;;;8.65;4.25;;;;;;;20.81;52.66;101076.13;4106419;28;20118;-62
2023/07/18 05:55:54;;;;;;;9.57;3.63;;;;;;;20.84;52.12;101079.59;4105194;28;20463;-63
2023/07/18 05:57:57;;;;;;;7.13;2.88;;;;;;;20.89;52.18;101072.44;4103381;28;20035;-62
2023/07/18 06:00:00;;;;;;;6.63;3.20;;;;;;;20.91;51.84;101075.97;4106165;28;20039;-62
2023/07/18 06:02:16;;;;;;;7.35;3.33;;;;;;;20.98;51.72;101078.47;4106585;28;20043;-63
2023/07/18 06:04:19;;;;;;;5.55;3.30;;;;;;;21.03;51.41;101068.69;4109143;28;20047;-62
2023/07/18 06:06:22;;;;;;;7.43;3.45;;;;;;;21.07;51.29;101073.88;4104754;28;20920;-63
2023/07/18 06:08:25;;;;;;;9.70;4.03;;;;;;;21.12;51.11;101065.84;4110372;28;20527;-63
2023/07/18 06:10:28;;;;;;;21.63;4.20;;;;;;;21.24;51.10;101057.66;4123368;28;20488;-63
2023/07/18 06:12:31;;;;;;;6.75;3.60;;;;;;;21.36;51.19;101064.50;4098019;28;20046;-63
2023/07/18 06:14:34;;;;;;;6.97;3.15;;;;;;;21.42;51.00;101064.38;4101467;28;20043;-62
2023/07/18 06:16:37;;;;;;;7.93;3.90;;;;;;;21.51;50.35;101063.34;4108846;28;20046;-63
2023/07/18 06:18:41;;;;;;;5.63;2.85;;;;;;;21.67;50.43;101062.97;4106943;28;20054;-63
2023/07/18 06:20:45;;;;;;;5.22;2.70;;;;;;;21.70;49.91;101057.63;4110772;28;20042;-62
2023/07/18 06:22:48;;;;;;;8.27;3.77;;;;;;;21.77;49.55;101053.91;4104673;28;20081;-63
2023/07/18 06:24:51;;;;;;;10.07;3.45;;;;;;;21.82;49.23;101057.34;4105665;28;20329;-63
2023/07/18 06:26:54;;;;;;;6.53;3.38;;;;;;;21.87;48.59;101049.28;4109365;28;20058;-63
2023/07/18 06:28:56;;;;;;;15.27;4.72;;;;;;;22.00;48.88;101047.22;4103248;28;20035;-63
2023/07/18 06:30:59;;;;;;;6.05;3.63;;;;;;;22.20;46.09;101052.91;4096099;29;20059;-63
2023/07/18 06:33:02;;;;;;;7.60;4.05;;;;;;;22.16;45.78;101053.03;4108699;28;20039;-63
2023/07/18 06:35:10;;;;;;;10.30;3.40;;;;;;;22.07;45.80;101049.69;4108379;28;20039;-63
2023/07/18 06:37:25;;;;;;;8.60;3.95;;;;;;;22.10;45.17;101051.41;4107951;28;20118;-63
2023/07/18 06:39:29;;;;;;;11.93;4.47;;;;;;;22.26;44.08;101059.84;4110417;28;20047;-63
2023/07/18 06:41:32;;;;;;;11.50;4.43;;;;;;;22.24;44.10;101054.59;4104715;28;20050;-63
2023/07/18 06:43:34;;;;;;;8.27;3.47;;;;;;;22.13;44.29;101048.69;4100952;28;20569;-63
2023/07/18 06:45:37;;;;;;;10.65;4.38;;;;;;;22.18;44.44;101049.44;4106161;28;20051;-63
2023/07/18 06:47:40;;;;;;;10.63;4.35;;;;;;;22.34;43.51;101043.78;4095466;29;20126;-63
2023/07/18 06:49:43;;;;;;;8.68;3.35;;;;;;;22.31;42.73;101042.94;4108632;28;20039;-63
2023/07/18 06:51:47;;;;;;;8.10;2.95;;;;;;;22.28;43.62;101045.66;4112737;28;20101;-63
2023/07/18 06:53:51;;;;;;;;;;;;;;;22.25;44.08;101037.78;4108915;28;20098;-63
2023/07/18 06:55:55;;;;;;;8.15;3.67;;;;;;;22.41;43.13;101040.06;4107766;28;19929;-63
2023/07/18 06:57:57;;;;;;;8.27;2.92;;;;;;;22.65;42.00;101039.41;4105042;28;20038;-63
2023/07/18 07:00:11;;;;;;;5.32;2.92;;;;;;;22.67;40.78;101037.59;4106018;28;20066;-63
2023/07/18 07:02:14;;;;;;;7.93;3.15;;;;;;;22.74;40.58;101030.34;4108522;28;20065;-63
2023/07/18 07:04:17;;;;;;;7.43;3.03;;;;;;;22.69;40.98;101028.72;4108176;28;20038;-64
2023/07/18 07:06:20;;;;;;;6.97;2.63;;;;;;;22.80;40.94;101031.97;4112427;28;20389;-63
2023/07/18 07:08:24;;;;;;;6.80;3.13;;;;;;;22.82;39.72;101023.06;4095595;29;20035;-63
2023/07/18 07:10:28;;;;;;;6.53;3.15;;;;;;;22.73;40.23;101028.59;4111976;28;20041;-63
2023/07/18 07:12:33;;;;;;;7.13;3.20;;;;;;;22.86;41.01;101025.63;4107741;28;20050;-63
2023/07/18 07:14:39;;;;;;;6.57;2.75;;;;;;;22.92;41.51;101023.66;4094091;29;20736;-63
2023/07/18 07:16:42;;;;;;;10.32;2.80;;;;;;;23.14;40.43;101023.97;4109345;28;20118;-63
2023/07/18 07:18:49;;;;;;;9.02;3.33;;;;;;;23.22;39.25;101023.75;4102670;28;20061;-63
2023/07/18 07:20:53;;;;;;;8.68;2.53;;;;;;;23.12;39.57;101017.81;4111123;28;20066;-63
2023/07/18 07:22:56;;;;;;;;;;;;;;;23.05;39.71;101012.72;4112556;28;20034;-63
2023/07/18 07:25:00;;;;;;;6.03;2.70;;;;;;;23.14;39.51;101016.00;4116355;28;20348;-63
2023/07/18 07:27:05;;;;;;;;;;;;;;;23.23;39.86;101020.19;4105688;28;20559;-63
2023/07/18 07:29:09;;;;;;;5.05;2.70;;;;;;;23.52;38.29;101013.09;4118371;28;19928;-63
2023/07/18 07:31:12;;;;;;;6.15;3.22;;;;;;;23.55;38.05;101005.03;4106767;28;20126;-63
2023/07/18 07:33:15;;;;;;;5.45;2.30;;;;;;;23.48;38.89;101001.72;4108840;28;20074;-63
2023/07/18 07:35:18;;;;;;;3.90;2.08;;;;;;;23.45;39.75;100993.88;4110028;28;20125;-63
2023/07/18 07:37:21;;;;;;;4.90;2.30;;;;;;;23.51;40.61;100998.97;4101800;28;20042;-63
2023/07/18 07:39:27;;;;;;;5.30;2.60;;;;;;;23.63;40.05;100997.72;4104424;28;20043;-63
2023/07/18 07:41:30;;;;;;;9.27;2.63;;;;;;;23.74;39.12;100999.16;4107939;28;20043;-63
2023/07/18 07:43:33;;;;;;;7.93;2.65;;;;;;;23.80;39.60;100993.66;4126249;28;20043;-63
2023/07/18 07:45:36;;;;;;;5.70;2.90;;;;;;;23.94;38.76;100994.09;4108679;28;20034;-63
2023/07/18 07:47:39;;;;;;;5.63;2.40;;;;;;;24.01;38.29;100992.97;4111957;28;20090;-62
2023/07/18 07:49:42;;;;;;;5.63;2.85;;;;;;;23.98;38.21;100986.91;4107979;28;20031;-63
2023/07/18 07:51:45;;;;;;;7.05;2.13;;;;;;;24.03;38.02;100984.97;4084470;29;20539;-63
2023/07/18 07:53:50;;;;;;;5.78;3.05;;;;;;;24.04;38.03;100987.56;4114199;28;20424;-63
2023/07/18 07:55:53;;;;;;;4.57;2.78;;;;;;;24.23;36.96;100981.63;4117984;28;20043;-63
2023/07/18 07:57:57;;;;;;;6.35;2.47;;;;;;;23.96;37.67;100984.31;4111852;28;20037;-63
2023/07/18 08:00:00;;;;;;;8.05;2.90;;;;;;;24.00;37.52;100979.75;4109952;28;20073;-63
2023/07/18 08:02:04;;;;;;;4.22;2.30;;;;;;;24.13;36.99;100978.41;4101365;28;20043;-62
2023/07/18 08:04:08;;;;;;;5.50;2.33;;;;;;;24.19;37.10;100974.69;4103503;28;20050;-63
2023/07/18 08:06:10;;;;;;;6.30;2.67;;;;;;;24.20;36.87;100965.78;4106397;28;20122;-63
2023/07/18 08:08:13;;;;;;;5.53;2.67;;;;;;;24.08;36.64;100971.50;4114296;28;20392;-63
2023/07/18 08:10:17;;;;;;;6.90;2.50;;;;;;;24.08;37.35;100969.75;4110995;28;20046;-63
2023/07/18 08:12:20;;;;;;;9.32;2.88;;;;;;;24.32;37.05;100975.97;4109479;28;20038;-62
2023/07/18 08:14:25;;;;;;;7.88;2.83;;;;;;;24.40;36.27;100971.28;4111176;28;20062;-62
2023/07/18 08:16:28;;;;;;;5.28;2.72;;;;;;;24.32;36.22;100957.38;4105810;28;20073;-62
2023/07/18 08:18:31;;;;;;;9.02;2.85;;;;;;;24.45;35.79;100954.31;4115004;28;20066;-62
2023/07/18 08:20:34;;;;;;;4.20;2.58;;;;;;;24.50;35.78;100966.50;4112670;28;20051;-63
2023/07/18 08:22:36;;;;;;;2.00;1.67;;;;;;;24.45;35.68;100952.50;4112622;28;20154;-62
2023/07/18 08:24:40;;;;;;;5.40;2.20;;;;;;;24.43;36.24;100954.38;4105713;28;20579;-62
2023/07/18 08:26:43;;;;;;;4.50;2.47;;;;;;;24.56;35.77;100955.66;4111876;28;20046;-62
2023/07/18 08:28:47;;;;;;;6.35;2.38;;;;;;;24.52;35.82;100953.16;4110165;28;20125;-62
2023/07/18 08:30:51;;;;;;;6.82;2.58;;;;;;;24.73;35.76;100955.03;4108090;28;20051;-62
2023/07/18 08:32:54;;;;;;;7.20;2.20;;;;;;;24.66;36.39;100940.28;4100623;28;20058;-62
2023/07/18 08:34:57;;;;;;;4.43;2.33;;;;;;;24.70;36.14;100938.34;4106346;28;20043;-62
2023/07/18 08:37:00;;;;;;;6.57;2.58;;;;;;;24.90;35.86;100945.59;4107147;28;20485;-63
2023/07/18 08:39:03;;;;;;;8.52;2.60;;;;;;;24.98;35.10;100947.94;4106690;28;20067;-62
2023/07/18 08:41:14;;;;;;;8.07;3.28;;;;;;;25.12;34.68;100939.44;4110513;28;20039;-62
2023/07/18 08:43:18;;;;;;;5.57;2.75;;;;;;;25.03;34.35;100925.56;4110104;28;20045;-63
2023/07/18 08:45:23;;;;;;;5.63;2.20;;;;;;;24.95;34.79;100926.78;4088855;29;20118;-63
2023/07/18 08:47:28;;;;;;;4.93;2.60;;;;;;;25.09;34.36;100919.16;4107484;28;20034;-62
2023/07/18 08:49:30;;;;;;;;;;;;;;;25.03;35.04;100930.88;4108978;28;20065;-62
2023/07/18 08:51:37;;;;;;;5.32;2.38;;;;;;;24.94;35.88;100925.94;4109396;28;20372;-62
2023/07/18 08:53:41;;;;;;;3.63;2.40;;;;;;;25.04;35.22;100914.00;4113416;28;20043;-62
2023/07/18 08:56:05;;;;;;;5.18;2.20;;;;;;;25.07;35.49;100900.59;4112483;28;20402;-95
2023/07/18 08:58:08;;;;;;;5.03;2.70;;;;;;;25.28;34.32;100900.66;4114029;28;20050;-62
2023/07/18 09:00:14;;;;;;;5.25;2.75;;;;;;;25.25;34.33;100884.81;4093385;29;20066;-62
2023/07/18 09:02:17;;;;;;;5.03;2.20;;;;;;;25.32;33.93;100888.09;4113016;28;20126;-62
2023/07/18 09:04:22;;;;;;;5.90;2.58;;;;;;;25.33;33.89;100882.72;4104116;28;20088;-61
2023/07/18 09:06:25;;;;;;;6.20;2.78;;;;;;;25.36;34.41;100884.41;4103273;28;20054;-62
2023/07/18 09:08:28;;;;;;;8.07;2.97;;;;;;;25.57;34.26;100880.00;4102131;28;20035;-62
2023/07/18 09:10:32;;;;;;;6.43;2.60;;;;;;;25.69;33.87;100870.63;4095892;28;20126;-62
2023/07/18 09:12:36;;;;;;;4.57;2.17;;;;;;;25.60;34.02;100874.53;4098226;28;20063;-62
2023/07/18 09:14:38;;;;;;;5.07;2.45;;;;;;;25.65;33.57;100869.88;4108611;28;20629;-62
2023/07/18 09:16:43;;;;;;;5.65;2.40;;;;;;;25.71;34.28;100864.28;4111779;28;20046;-62
2023/07/18 09:18:49;;;;;;;6.35;2.35;;;;;;;25.83;34.25;100875.34;4107318;28;20040;-62
2023/07/18 09:20:56;;;;;;;6.30;2.65;;;;;;;26.04;33.71;100871.78;4099262;29;20428;-62
2023/07/18 09:23:00;;;;;;;4.82;2.08;;;;;;;25.95;33.15;100859.72;4109700;28;20124;-63
2023/07/18 09:25:03;;;;;;;7.07;2.03;;;;;;;26.06;33.11;100859.25;4089544;29;20615;-63
2023/07/18 09:27:08;;;;;;;4.57;2.17;;;;;;;26.13;32.99;100849.19;4102847;28;20062;-63
2023/07/18 09:29:12;;;;;;;4.40;1.83;;;;;;;26.16;33.38;100845.53;4103953;28;20477;-62
2023/07/18 09:31:18;;;;;;;;;;;;;;;26.34;32.73;100839.34;4099116;29;20484;-63
2023/07/18 09:33:24;;;;;;;4.57;2.60;;;;;;;26.37;32.56;100841.91;4097952;29;19922;-62
2023/07/18 09:35:27;;;;;;;4.88;1.98;;;;;;;26.20;33.06;100837.34;4098680;29;20058;-63
2023/07/18 09:37:33;;;;;;;4.95;2.03;;;;;;;26.36;32.25;100850.84;4065608;29;20123;-62